sensor_id;sensor_type;location;lat;lon;timestamp;temperature;humidity
63383;DHT22;49512;48.744;9.176;2022-07-05T18:40:03;22.50;32.00
63383;DHT22;49512;48.744;9.176;2022-07-05T18:42:29;22.60;33.00
63383;DHT22;49512;48.744;9.176;2022-07-05T18:44:55;22.60;33.10
63383;DHT22;49512;48.744;9.176;2022-07-05T18:47:20;22.50;33.20
63383;DHT22;49512;48.744;9.176;2022-07-05T18:49:46;22.50;33.90
63383;DHT22;49512;48.744;9.176;2022-07-05T18:52:12;22.50;34.10
63383;DHT22;49512;48.744;9.176;2022-07-05T18:54:37;22.50;33.00
63383;DHT22;49512;48.744;9.176;2022-07-05T18:57:03;22.50;33.30
63383;DHT22;49512;48.744;9.176;2022-07-05T18:59:28;22.30;34.70
63383;DHT22;49512;48.744;9.176;2022-07-05T19:01:54;22.40;34.80
63383;DHT22;49512;48.744;9.176;2022-07-05T19:04:20;22.40;34.50
63383;DHT22;49512;48.744;9.176;2022-07-05T19:06:45;22.10;34.40
63383;DHT22;49512;48.744;9.176;2022-07-05T19:09:43;22.10;36.20
63383;DHT22;49512;48.744;9.176;2022-07-05T19:12:27;22.10;35.30
63383;DHT22;49512;48.744;9.176;2022-07-05T19:15:11;22.00;35.90
63383;DHT22;49512;48.744;9.176;2022-07-05T19:17:37;21.80;36.50
63383;DHT22;49512;48.744;9.176;2022-07-05T19:20:02;21.80;37.60
63383;DHT22;49512;48.744;9.176;2022-07-05T19:22:28;21.80;37.90
63383;DHT22;49512;48.744;9.176;2022-07-05T19:24:54;21.50;38.40
63383;DHT22;49512;48.744;9.176;2022-07-05T19:27:19;21.40;40.50
63383;DHT22;49512;48.744;9.176;2022-07-05T19:29:45;21.30;42.00
63383;DHT22;49512;48.744;9.176;2022-07-05T19:32:10;21.10;43.40
63383;DHT22;49512;48.744;9.176;2022-07-05T19:34:36;21.00;44.40
63383;DHT22;49512;48.744;9.176;2022-07-05T19:37:02;20.90;45.60
63383;DHT22;49512;48.744;9.176;2022-07-05T19:39:28;20.80;46.10
63383;DHT22;49512;48.744;9.176;2022-07-05T19:41:53;20.70;45.80
63383;DHT22;49512;48.744;9.176;2022-07-05T19:44:19;20.70;44.80
63383;DHT22;49512;48.744;9.176;2022-07-05T19:46:44;20.60;45.60
63383;DHT22;49512;48.744;9.176;2022-07-05T19:49:10;20.50;46.90
63383;DHT22;49512;48.744;9.176;2022-07-05T19:51:35;20.40;48.00
63383;DHT22;49512;48.744;9.176;2022-07-05T19:54:01;20.30;47.90
63383;DHT22;49512;48.744;9.176;2022-07-05T19:56:26;20.20;49.20
63383;DHT22;49512;48.744;9.176;2022-07-05T19:58:52;20.10;49.50
63383;DHT22;49512;48.744;9.176;2022-07-05T20:01:17;20.00;50.70
63383;DHT22;49512;48.744;9.176;2022-07-05T20:03:43;19.90;50.50
63383;DHT22;49512;48.744;9.176;2022-07-05T20:06:08;19.90;51.40
63383;DHT22;49512;48.744;9.176;2022-07-05T20:08:34;19.80;51.00
63383;DHT22;49512;48.744;9.176;2022-07-05T20:11:00;19.70;52.30
63383;DHT22;49512;48.744;9.176;2022-07-05T20:13:25;19.60;52.70
63383;DHT22;49512;48.744;9.176;2022-07-05T20:15:51;19.60;53.60
63383;DHT22;49512;48.744;9.176;2022-07-05T20:18:17;19.50;54.40
63383;DHT22;49512;48.744;9.176;2022-07-05T20:20:45;19.40;54.80
63383;DHT22;49512;48.744;9.176;2022-07-05T20:23:11;19.40;55.80
63383;DHT22;49512;48.744;9.176;2022-07-05T20:25:37;19.30;56.00
63383;DHT22;49512;48.744;9.176;2022-07-05T20:28:03;19.20;57.50
63383;DHT22;49512;48.744;9.176;2022-07-05T20:30:28;19.10;57.10
63383;DHT22;49512;48.744;9.176;2022-07-05T20:32:54;19.10;58.20
63383;DHT22;49512;48.744;9.176;2022-07-05T20:35:20;19.10;57.70
63383;DHT22;49512;48.744;9.176;2022-07-05T20:37:45;19.10;57.50
63383;DHT22;49512;48.744;9.176;2022-07-05T20:40:11;19.00;57.10
63383;DHT22;49512;48.744;9.176;2022-07-05T20:42:37;18.80;58.50
63383;DHT22;49512;48.744;9.176;2022-07-05T20:45:03;18.80;58.30
63383;DHT22;49512;48.744;9.176;2022-07-05T20:47:29;18.90;57.80
63383;DHT22;49512;48.744;9.176;2022-07-05T20:49:54;18.80;58.90
63383;DHT22;49512;48.744;9.176;2022-07-05T20:52:20;18.70;59.70
63383;DHT22;49512;48.744;9.176;2022-07-05T20:54:48;18.70;59.30
63383;DHT22;49512;48.744;9.176;2022-07-05T20:57:14;18.70;59.30
63383;DHT22;49512;48.744;9.176;2022-07-05T20:59:39;18.70;59.20
63383;DHT22;49512;48.744;9.176;2022-07-05T21:02:05;18.60;59.20
63383;DHT22;49512;48.744;9.176;2022-07-05T21:04:30;18.70;59.60
63383;DHT22;49512;48.744;9.176;2022-07-05T21:06:56;18.70;60.00
63383;DHT22;49512;48.744;9.176;2022-07-05T21:09:22;18.60;59.00
63383;DHT22;49512;48.744;9.176;2022-07-05T21:11:47;18.60;58.70
63383;DHT22;49512;48.744;9.176;2022-07-05T21:14:13;18.60;59.30
63383;DHT22;49512;48.744;9.176;2022-07-05T21:16:38;18.50;59.10
63383;DHT22;49512;48.744;9.176;2022-07-05T21:19:04;18.60;58.50
63383;DHT22;49512;48.744;9.176;2022-07-05T21:21:29;18.60;58.90
63383;DHT22;49512;48.744;9.176;2022-07-05T21:23:55;17.90;58.70
63383;DHT22;49512;48.744;9.176;2022-07-05T21:26:20;18.50;58.80
63383;DHT22;49512;48.744;9.176;2022-07-05T21:28:46;18.40;58.40
63383;DHT22;49512;48.744;9.176;2022-07-05T21:31:13;18.40;59.00
63383;DHT22;49512;48.744;9.176;2022-07-05T21:33:40;18.40;59.30
63383;DHT22;49512;48.744;9.176;2022-07-05T21:36:05;18.40;58.80
63383;DHT22;49512;48.744;9.176;2022-07-05T21:38:31;18.40;58.70
63383;DHT22;49512;48.744;9.176;2022-07-05T21:40:56;18.40;57.80
63383;DHT22;49512;48.744;9.176;2022-07-05T21:43:22;18.40;56.50
63383;DHT22;49512;48.744;9.176;2022-07-05T21:45:47;18.50;56.10
63383;DHT22;49512;48.744;9.176;2022-07-05T21:48:13;18.50;54.80
63383;DHT22;49512;48.744;9.176;2022-07-05T21:50:39;18.50;56.20
63383;DHT22;49512;48.744;9.176;2022-07-05T21:53:04;18.40;56.20
63383;DHT22;49512;48.744;9.176;2022-07-05T21:55:30;18.40;56.00
63383;DHT22;49512;48.744;9.176;2022-07-05T21:57:55;18.40;56.80
63383;DHT22;49512;48.744;9.176;2022-07-05T22:00:21;18.40;56.00
63383;DHT22;49512;48.744;9.176;2022-07-05T22:03:06;18.30;56.40
63383;DHT22;49512;48.744;9.176;2022-07-05T22:05:50;18.20;57.00
63383;DHT22;49512;48.744;9.176;2022-07-05T22:08:16;18.20;57.90
63383;DHT22;49512;48.744;9.176;2022-07-05T22:10:42;18.10;57.20
63383;DHT22;49512;48.744;9.176;2022-07-05T22:13:07;18.20;58.00
63383;DHT22;49512;48.744;9.176;2022-07-05T22:15:33;18.10;58.70
63383;DHT22;49512;48.744;9.176;2022-07-05T22:17:58;17.90;58.50
63383;DHT22;49512;48.744;9.176;2022-07-05T22:20:24;18.30;56.30
63383;DHT22;49512;48.744;9.176;2022-07-05T22:22:49;18.40;55.80
63383;DHT22;49512;48.744;9.176;2022-07-05T22:25:15;18.40;54.00
63383;DHT22;49512;48.744;9.176;2022-07-05T22:27:40;18.50;52.30
63383;DHT22;49512;48.744;9.176;2022-07-05T22:30:06;18.50;52.90
63383;DHT22;49512;48.744;9.176;2022-07-05T22:32:31;18.70;52.70
63383;DHT22;49512;48.744;9.176;2022-07-05T22:34:58;18.90;52.10
63383;DHT22;49512;48.744;9.176;2022-07-05T22:37:23;18.90;52.60
63383;DHT22;49512;48.744;9.176;2022-07-05T22:39:49;18.90;51.40
63383;DHT22;49512;48.744;9.176;2022-07-05T22:42:14;19.00;51.30
63383;DHT22;49512;48.744;9.176;2022-07-05T22:44:40;19.00;51.30
63383;DHT22;49512;48.744;9.176;2022-07-05T22:47:07;19.00;51.30
63383;DHT22;49512;48.744;9.176;2022-07-05T22:49:32;19.00;51.60
63383;DHT22;49512;48.744;9.176;2022-07-05T22:51:58;19.00;52.20
63383;DHT22;49512;48.744;9.176;2022-07-05T22:54:23;19.10;51.80
63383;DHT22;49512;48.744;9.176;2022-07-05T22:56:49;19.00;52.50
63383;DHT22;49512;48.744;9.176;2022-07-05T22:59:14;19.00;52.70
63383;DHT22;49512;48.744;9.176;2022-07-05T23:01:40;19.00;52.20
63383;DHT22;49512;48.744;9.176;2022-07-05T23:04:05;18.80;53.30
63383;DHT22;49512;48.744;9.176;2022-07-05T23:06:31;18.90;53.70
63383;DHT22;49512;48.744;9.176;2022-07-05T23:08:56;18.90;53.10
63383;DHT22;49512;48.744;9.176;2022-07-05T23:11:22;18.90;52.90
63383;DHT22;49512;48.744;9.176;2022-07-05T23:13:47;18.80;53.10
63383;DHT22;49512;48.744;9.176;2022-07-05T23:16:13;18.80;53.10
63383;DHT22;49512;48.744;9.176;2022-07-05T23:18:38;18.70;53.60
63383;DHT22;49512;48.744;9.176;2022-07-05T23:21:04;18.70;53.80
63383;DHT22;49512;48.744;9.176;2022-07-05T23:23:29;18.70;53.60
63383;DHT22;49512;48.744;9.176;2022-07-05T23:25:55;18.60;54.00
63383;DHT22;49512;48.744;9.176;2022-07-05T23:28:20;18.60;54.20
63383;DHT22;49512;48.744;9.176;2022-07-05T23:30:46;18.60;55.20
63383;DHT22;49512;48.744;9.176;2022-07-05T23:33:11;18.50;55.10
63383;DHT22;49512;48.744;9.176;2022-07-05T23:35:37;18.40;55.60
63383;DHT22;49512;48.744;9.176;2022-07-05T23:38:02;18.40;55.60
63383;DHT22;49512;48.744;9.176;2022-07-05T23:40:28;18.40;55.70
63383;DHT22;49512;48.744;9.176;2022-07-05T23:42:53;18.40;56.20
63383;DHT22;49512;48.744;9.176;2022-07-05T23:45:19;18.30;56.40
63383;DHT22;49512;48.744;9.176;2022-07-05T23:47:44;18.30;56.80
63383;DHT22;49512;48.744;9.176;2022-07-05T23:50:10;18.20;56.90
63383;DHT22;49512;48.744;9.176;2022-07-05T23:52:36;18.20;57.30
63383;DHT22;49512;48.744;9.176;2022-07-05T23:55:01;18.20;57.40
63383;DHT22;49512;48.744;9.176;2022-07-05T23:57:28;18.20;57.60
63383;DHT22;49512;48.744;9.176;2022-07-05T23:59:54;18.20;56.70
